Time;durP1;ratioP1;P1;durP2;ratioP2;P2;SDS_P1;SDS_P2;PMS_P1;PMS_P2;Temp;Humidity;BMP_temperature;BMP_pressure;BME280_temperature;BME280_humidity;BME280_pressure;Samples;Min_cycle;Max_cycle;Signal;HPM_P1;HPM_P2
2023/04/17 00:02:09;;;;;;;19.10;11.33;;;8.40;99.90;;;;;;4978293;28;20185;-83
2023/04/17 00:04:36;;;;;;;14.37;10.63;;;8.40;99.90;;;;;;4995656;28;20201;-83
2023/04/17 00:07:02;;;;;;;15.30;11.23;;;8.40;99.90;;;;;;4978466;28;20191;-83
2023/04/17 00:09:29;;;;;;;20.67;10.97;;;8.40;99.90;;;;;;4994176;28;20622;-83
2023/04/17 00:11:54;;;;;;;14.57;10.80;;;8.40;99.90;;;;;;4994447;28;20186;-83
2023/04/17 00:14:20;;;;;;;21.20;11.43;;;8.30;99.90;;;;;;4977802;28;20184;-83
2023/04/17 00:16:46;;;;;;;17.30;10.40;;;8.20;99.90;;;;;;4995258;28;20219;-83
2023/04/17 00:19:11;;;;;;;16.73;11.37;;;8.20;99.90;;;;;;4995348;28;20306;-83
2023/04/17 00:21:37;;;;;;;15.00;10.73;;;8.20;99.90;;;;;;4994017;28;20176;-83
2023/04/17 00:24:03;;;;;;;14.97;10.73;;;8.20;99.90;;;;;;4995403;28;20633;-83
2023/04/17 00:26:31;;;;;;;18.93;11.43;;;8.10;99.90;;;;;;4977844;28;20187;-83
2023/04/17 00:28:57;;;;;;;20.57;11.87;;;8.10;99.90;;;;;;4977226;28;20591;-83
2023/04/17 00:31:22;;;;;;;14.70;11.03;;;8.10;99.90;;;;;;4977593;28;20266;-83
2023/04/17 00:33:48;;;;;;;13.73;10.43;;;8.10;99.90;;;;;;4995338;28;20176;-83
2023/04/17 00:36:14;;;;;;;15.20;10.73;;;8.10;99.90;;;;;;4995287;28;20181;-83
2023/04/17 00:38:40;;;;;;;15.23;10.73;;;8.00;99.90;;;;;;4977655;28;20215;-83
2023/04/17 00:41:06;;;;;;;16.17;10.90;;;8.10;99.90;;;;;;4994973;28;20633;-83
2023/04/17 00:43:31;;;;;;;16.13;11.43;;;8.00;99.90;;;;;;4993553;28;20234;-83
2023/04/17 00:45:57;;;;;;;14.40;10.93;;;8.10;99.90;;;;;;4995216;28;20251;-83
2023/04/17 00:48:24;;;;;;;15.37;11.13;;;8.00;99.90;;;;;;4995090;28;20175;-83
2023/04/17 00:50:51;;;;;;;24.20;11.93;;;7.90;99.90;;;;;;4995117;28;20172;-83
2023/04/17 00:53:17;;;;;;;15.60;11.03;;;7.90;99.90;;;;;;4995124;28;20184;-83
2023/04/17 00:55:45;;;;;;;16.47;11.00;;;7.90;99.90;;;;;;4977117;28;20227;-83
2023/04/17 00:58:11;;;;;;;14.70;10.77;;;7.80;99.90;;;;;;4994753;28;20289;-83
2023/04/17 01:00:37;;;;;;;17.27;11.50;;;7.80;99.90;;;;;;4977208;28;20219;-83
2023/04/17 01:03:02;;;;;;;17.80;11.17;;;7.80;99.90;;;;;;4977245;28;20187;-83
2023/04/17 01:05:28;;;;;;;16.77;10.83;;;7.80;99.90;;;;;;4994827;28;20553;-83
2023/04/17 01:07:56;;;;;;;15.33;10.30;;;7.80;99.90;;;;;;4994600;28;20176;-83
2023/04/17 01:10:22;;;;;;;15.50;10.60;;;7.80;99.90;;;;;;4994322;28;20176;-83
2023/04/17 01:13:07;;;;;;;20.97;10.70;;;7.70;99.90;;;;;;4993332;28;20212;-83
2023/04/17 01:15:34;;;;;;;15.70;10.40;;;7.70;99.90;;;;;;4993222;28;20243;-84
2023/04/17 01:17:59;;;;;;;15.93;10.50;;;7.70;99.90;;;;;;4994436;28;20581;-83
2023/04/17 01:20:29;;;;;;;14.47;10.90;;;7.70;99.90;;;;;;4976827;28;20191;-83
2023/04/17 01:22:57;;;;;;;14.83;11.10;;;7.70;99.90;;;;;;4994397;28;20254;-83
2023/04/17 01:25:23;;;;;;;15.00;11.33;;;7.70;99.90;;;;;;4994447;28;20622;-84
2023/04/17 01:27:49;;;;;;;17.77;10.67;;;7.70;99.90;;;;;;4993951;28;20627;-83
2023/04/17 01:30:15;;;;;;;14.03;10.80;;;7.60;99.90;;;;;;4976804;28;20607;-83
2023/04/17 01:32:41;;;;;;;14.17;10.40;;;7.60;99.90;;;;;;4994083;28;20183;-83
2023/04/17 01:35:07;;;;;;;17.17;11.27;;;7.50;99.90;;;;;;4976729;28;20182;-83
2023/04/17 01:37:33;;;;;;;14.60;10.73;;;7.50;99.90;;;;;;4994207;28;20263;-83
2023/04/17 01:39:59;;;;;;;14.53;10.23;;;7.60;99.90;;;;;;4994350;28;20347;-83
2023/04/17 01:42:25;;;;;;;17.10;10.47;;;7.60;99.90;;;;;;4993734;28;20207;-83
2023/04/17 01:44:51;;;;;;;16.93;11.70;;;7.60;99.90;;;;;;4994107;28;20238;-83
2023/04/17 01:47:17;;;;;;;15.77;10.93;;;7.60;99.90;;;;;;4994106;28;20262;-84
2023/04/17 01:49:43;;;;;;;14.50;10.87;;;7.50;99.90;;;;;;4994074;28;20647;-83
2023/04/17 01:52:08;;;;;;;17.03;10.97;;;7.50;99.90;;;;;;4993857;28;20186;-83
2023/04/17 01:54:34;;;;;;;14.23;11.27;;;7.50;99.90;;;;;;4993906;28;20235;-83
2023/04/17 01:57:01;;;;;;;16.60;10.47;;;7.50;99.90;;;;;;4993753;28;20322;-83
2023/04/17 01:59:27;;;;;;;17.27;10.77;;;7.50;99.90;;;;;;4993875;28;20307;-83
2023/04/17 02:01:53;;;;;;;16.43;11.07;;;7.50;99.90;;;;;;4976233;28;20183;-83
2023/04/17 02:04:19;;;;;;;17.37;10.83;;;7.50;99.90;;;;;;4993922;28;20180;-83
2023/04/17 02:06:45;;;;;;;15.13;10.77;;;7.40;99.90;;;;;;4994022;28;20172;-83
2023/04/17 02:09:11;;;;;;;14.30;10.53;;;7.50;99.90;;;;;;4993627;28;20191;-83
2023/04/17 02:11:36;;;;;;;18.40;10.73;;;7.50;99.90;;;;;;4976492;28;20488;-84
2023/04/17 02:14:02;;;;;;;15.33;10.63;;;7.40;99.90;;;;;;4993591;28;20318;-84
2023/04/17 02:16:28;;;;;;;17.13;10.73;;;7.40;99.90;;;;;;4993858;28;20513;-83
2023/04/17 02:18:54;;;;;;;16.07;10.17;;;7.50;99.90;;;;;;4976305;28;20207;-84
2023/04/17 02:21:20;;;;;;;16.50;11.23;;;7.40;99.90;;;;;;4976254;28;20277;-83
2023/04/17 02:23:46;;;;;;;16.53;11.20;;;7.40;99.90;;;;;;4994012;28;20646;-84
2023/04/17 02:26:12;;;;;;;16.80;10.90;;;7.40;99.90;;;;;;4976243;28;20188;-84
2023/04/17 02:28:38;;;;;;;15.40;10.73;;;7.40;99.90;;;;;;4976012;28;20237;-83
2023/04/17 02:31:07;;;;;;;15.57;10.77;;;7.40;99.90;;;;;;4993662;28;20172;-83
2023/04/17 02:33:37;;;;;;;15.17;10.90;;;7.40;99.90;;;;;;4993508;28;20200;-83
2023/04/17 02:36:04;;;;;;;15.63;10.03;;;7.40;99.90;;;;;;4993780;28;20176;-83
2023/04/17 02:38:30;;;;;;;16.83;10.17;;;7.40;99.90;;;;;;4976197;28;20642;-83
2023/04/17 02:40:56;;;;;;;17.30;10.97;;;7.40;99.90;;;;;;4993504;28;20164;-83
2023/04/17 02:43:22;;;;;;;16.40;10.77;;;7.40;99.90;;;;;;4993459;28;20176;-83
2023/04/17 02:45:49;;;;;;;14.57;10.47;;;7.40;99.90;;;;;;4993549;28;20500;-83
2023/04/17 02:48:15;;;;;;;12.40;9.63;;;7.40;99.90;;;;;;4976106;28;20180;-84
2023/04/17 02:50:41;;;;;;;16.73;10.20;;;7.40;99.90;;;;;;4992329;28;20190;-84
2023/04/17 02:53:07;;;;;;;16.50;10.70;;;7.30;99.90;;;;;;4978476;28;20516;-84
2023/04/17 02:55:33;;;;;;;16.00;10.67;;;7.30;99.90;;;;;;4996819;28;20238;-84
2023/04/17 02:57:59;;;;;;;17.50;10.27;;;7.30;99.90;;;;;;4979279;28;20214;-83
2023/04/17 03:00:26;;;;;;;20.03;10.97;;;7.30;99.90;;;;;;4979348;28;20184;-83
2023/04/17 03:02:52;;;;;;;15.37;10.00;;;7.30;99.90;;;;;;4979549;28;20199;-84
2023/04/17 03:05:19;;;;;;;17.77;11.00;;;7.20;99.90;;;;;;4979285;28;20234;-84
2023/04/17 03:07:45;;;;;;;13.90;10.07;;;7.20;99.90;;;;;;4979343;28;20183;-84
2023/04/17 03:10:11;;;;;;;13.07;10.07;;;7.10;99.90;;;;;;4996298;28;20662;-83
2023/04/17 03:12:36;;;;;;;13.03;10.43;;;7.20;99.90;;;;;;4978855;28;20188;-84
2023/04/17 03:15:02;;;;;;;17.70;10.83;;;7.20;99.90;;;;;;4979180;28;20674;-83
2023/04/17 03:17:28;;;;;;;15.90;10.07;;;7.20;99.90;;;;;;4996746;28;20190;-84
2023/04/17 03:19:53;;;;;;;20.47;10.90;;;7.10;99.90;;;;;;4979198;28;20219;-84
2023/04/17 03:22:19;;;;;;;13.93;9.97;;;7.10;99.90;;;;;;4996504;28;20203;-84
2023/04/17 03:24:45;;;;;;;18.47;10.47;;;7.10;99.90;;;;;;4995218;28;20511;-84
2023/04/17 03:27:11;;;;;;;24.37;11.07;;;7.00;99.90;;;;;;4975503;28;20192;-84
2023/04/17 03:29:37;;;;;;;17.27;10.10;;;7.00;99.90;;;;;;4959598;28;20335;-84
2023/04/17 03:32:03;;;;;;;15.87;10.37;;;7.00;99.90;;;;;;4959500;28;20279;-83
2023/04/17 03:34:31;;;;;;;14.17;10.50;;;7.00;99.90;;;;;;4977151;28;20591;-83
2023/04/17 03:36:57;;;;;;;14.97;10.13;;;7.00;99.90;;;;;;4977010;28;20208;-84
2023/04/17 03:39:23;;;;;;;14.27;9.87;;;7.00;99.90;;;;;;4959180;28;20213;-83
2023/04/17 03:41:49;;;;;;;16.77;10.63;;;7.10;99.90;;;;;;4959406;28;20243;-84
2023/04/17 03:44:18;;;;;;;17.43;9.80;;;7.00;99.90;;;;;;4959080;28;20184;-83
2023/04/17 03:46:44;;;;;;;15.80;10.87;;;7.00;99.90;;;;;;4959492;28;20180;-84
2023/04/17 03:49:10;;;;;;;15.90;10.80;;;7.00;99.90;;;;;;4976731;28;20176;-84
2023/04/17 03:51:36;;;;;;;16.30;10.53;;;7.00;99.90;;;;;;4976484;28;20562;-83
2023/04/17 03:54:01;;;;;;;14.40;10.50;;;7.00;99.90;;;;;;4959029;28;20283;-84
2023/04/17 03:56:27;;;;;;;16.57;10.10;;;7.00;99.90;;;;;;4984006;28;20519;-84
2023/04/17 03:58:53;;;;;;;18.20;10.40;;;7.00;99.90;;;;;;4978138;28;20548;-83
2023/04/17 04:01:19;;;;;;;16.03;10.13;;;7.00;99.90;;;;;;4978391;28;20246;-83
2023/04/17 04:03:44;;;;;;;14.90;10.27;;;7.00;99.90;;;;;;4977425;28;20184;-84
2023/04/17 04:06:10;;;;;;;15.77;10.30;;;7.00;99.90;;;;;;4978235;28;20183;-84
2023/04/17 04:08:36;;;;;;;15.57;10.50;;;6.90;99.90;;;;;;4995620;28;20175;-83
2023/04/17 04:11:02;;;;;;;18.80;10.93;;;6.90;99.90;;;;;;4995280;28;20173;-84
2023/04/17 04:13:28;;;;;;;16.60;10.60;;;6.90;99.90;;;;;;4976982;28;20199;-84
2023/04/17 04:15:53;;;;;;;13.73;9.87;;;6.90;99.90;;;;;;4976777;28;20180;-83
2023/04/17 04:18:19;;;;;;;14.60;10.00;;;6.90;99.90;;;;;;4993550;28;20227;-83
2023/04/17 04:20:44;;;;;;;16.47;10.20;;;6.80;99.90;;;;;;4994886;28;20160;-83
2023/04/17 04:23:11;;;;;;;15.10;10.90;;;6.80;99.90;;;;;;4977855;28;20282;-83
2023/04/17 04:25:40;;;;;;;13.67;9.57;;;6.80;99.90;;;;;;4977581;28;20191;-84
2023/04/17 04:28:06;;;;;;;14.67;10.30;;;6.80;99.90;;;;;;4977546;28;20275;-83
2023/04/17 04:30:34;;;;;;;16.53;10.60;;;6.80;99.90;;;;;;4995135;28;20717;-83
2023/04/17 04:33:04;;;;;;;17.43;10.73;;;6.70;99.90;;;;;;4977098;28;20183;-83
2023/04/17 04:35:30;;;;;;;15.00;9.93;;;6.80;99.90;;;;;;4957757;28;20188;-83
2023/04/17 04:38:00;;;;;;;15.57;9.90;;;6.70;99.90;;;;;;4958397;28;20279;-83
2023/04/17 04:40:29;;;;;;;15.37;10.07;;;6.70;99.90;;;;;;4958259;28;20277;-83
2023/04/17 04:42:55;;;;;;;19.93;10.33;;;6.70;99.90;;;;;;4958225;28;20670;-83
2023/04/17 04:45:21;;;;;;;14.27;9.77;;;6.70;99.90;;;;;;4969992;28;20198;-84
2023/04/17 04:47:47;;;;;;;16.50;10.97;;;6.70;99.90;;;;;;4977235;28;20187;-84
2023/04/17 04:50:13;;;;;;;14.47;10.90;;;6.70;99.90;;;;;;4983215;28;20204;-83
2023/04/17 04:52:38;;;;;;;14.97;10.77;;;6.70;99.90;;;;;;4958700;28;20211;-84
2023/04/17 04:55:04;;;;;;;14.93;10.50;;;6.70;99.90;;;;;;4953963;29;20569;-83
2023/04/17 04:57:30;;;;;;;15.43;10.17;;;6.60;99.90;;;;;;4954364;28;20263;-83
2023/04/17 04:59:56;;;;;;;16.17;10.30;;;6.70;99.90;;;;;;4954495;29;20185;-83
2023/04/17 05:02:21;;;;;;;18.27;10.93;;;6.70;99.90;;;;;;4953977;28;20185;-83
2023/04/17 05:04:47;;;;;;;16.57;10.33;;;6.70;99.90;;;;;;4954760;29;20204;-83
2023/04/17 05:07:13;;;;;;;15.47;11.60;;;6.60;99.90;;;;;;4956045;29;20184;-83
2023/04/17 05:09:38;;;;;;;15.93;10.67;;;6.70;99.90;;;;;;4954316;29;20616;-83
2023/04/17 05:12:04;;;;;;;15.73;10.33;;;6.80;99.90;;;;;;4954866;29;20228;-84
2023/04/17 05:14:30;;;;;;;17.03;11.10;;;6.80;99.90;;;;;;4954245;28;20181;-83
2023/04/17 05:16:56;;;;;;;17.43;10.80;;;6.70;99.90;;;;;;4956025;29;20192;-84
2023/04/17 05:19:22;;;;;;;17.40;11.63;;;6.70;99.90;;;;;;4955694;29;20758;-83
2023/04/17 05:21:47;;;;;;;17.17;10.50;;;6.70;99.90;;;;;;4970259;28;20613;-83
2023/04/17 05:24:13;;;;;;;15.87;10.50;;;6.80;99.90;;;;;;4955601;29;20173;-83
2023/04/17 05:26:39;;;;;;;15.83;10.60;;;6.80;99.90;;;;;;4955631;28;20240;-83
2023/04/17 05:29:05;;;;;;;16.97;11.23;;;6.80;99.90;;;;;;4955381;29;20196;-83
2023/04/17 05:31:31;;;;;;;16.80;10.93;;;6.70;99.90;;;;;;4955536;29;20169;-83
2023/04/17 05:33:56;;;;;;;18.57;11.30;;;6.70;99.90;;;;;;4953995;29;20651;-83
2023/04/17 05:36:22;;;;;;;16.03;11.80;;;6.80;99.90;;;;;;4955542;29;20232;-83
2023/04/17 05:38:48;;;;;;;17.00;11.53;;;6.80;99.90;;;;;;4955407;29;20241;-83
2023/04/17 05:41:14;;;;;;;14.23;10.93;;;6.90;99.90;;;;;;4970128;28;20177;-83
2023/04/17 05:43:41;;;;;;;14.53;10.43;;;6.90;99.90;;;;;;4955174;29;20176;-83
2023/04/17 05:46:07;;;;;;;16.57;10.87;;;6.90;99.90;;;;;;4955209;29;20184;-83
2023/04/17 05:48:33;;;;;;;16.50;10.67;;;6.90;99.90;;;;;;4954031;28;20181;-83
2023/04/17 05:50:58;;;;;;;17.03;11.20;;;6.90;99.90;;;;;;4955055;29;20169;-83
2023/04/17 05:53:24;;;;;;;17.97;11.10;;;7.00;99.90;;;;;;4953984;28;20189;-83
2023/04/17 05:55:50;;;;;;;19.30;11.33;;;7.00;99.90;;;;;;4990301;28;20228;-83
2023/04/17 05:58:16;;;;;;;17.03;11.97;;;7.00;99.90;;;;;;4976423;28;20204;-82
2023/04/17 06:00:41;;;;;;;16.40;11.27;;;7.00;99.90;;;;;;4993855;28;20191;-84
2023/04/17 06:03:07;;;;;;;19.70;11.60;;;7.00;99.90;;;;;;4993983;28;20176;-83
2023/04/17 06:05:33;;;;;;;17.33;12.17;;;7.10;99.90;;;;;;4976514;28;20610;-84
2023/04/17 06:07:59;;;;;;;18.07;11.30;;;7.10;99.90;;;;;;4992697;28;20180;-83
2023/04/17 06:10:25;;;;;;;17.83;11.60;;;7.10;99.90;;;;;;4976541;28;20603;-83
2023/04/17 06:12:51;;;;;;;15.63;10.53;;;7.10;99.90;;;;;;4975937;28;20180;-83
2023/04/17 06:15:17;;;;;;;17.47;10.97;;;7.20;99.90;;;;;;4993970;28;20184;-83
2023/04/17 06:17:42;;;;;;;21.13;11.07;;;7.20;99.90;;;;;;4976438;28;20188;-83
2023/04/17 06:20:10;;;;;;;17.57;11.30;;;7.40;99.90;;;;;;4976238;28;20521;-83
2023/04/17 06:22:36;;;;;;;17.73;11.10;;;7.50;99.90;;;;;;4976186;28;20246;-83
2023/04/17 06:25:03;;;;;;;16.77;11.77;;;7.50;99.90;;;;;;4976403;28;20192;-83
2023/04/17 06:27:28;;;;;;;19.10;12.27;;;7.60;99.90;;;;;;4974460;28;20191;-83
2023/04/17 06:29:54;;;;;;;16.00;10.73;;;7.60;99.90;;;;;;4978201;28;20247;-83
2023/04/17 06:32:20;;;;;;;16.30;11.03;;;7.70;99.90;;;;;;4977967;28;20264;-83
2023/04/17 06:34:45;;;;;;;17.93;11.03;;;7.80;99.90;;;;;;4978210;28;20503;-83
2023/04/17 06:37:11;;;;;;;17.17;10.77;;;7.90;99.90;;;;;;4978032;28;20176;-83
2023/04/17 06:39:37;;;;;;;13.83;10.40;;;8.10;99.90;;;;;;4978302;28;20757;-84
2023/04/17 06:42:05;;;;;;;16.73;11.37;;;8.10;99.90;;;;;;4976728;28;20515;-83
2023/04/17 06:44:31;;;;;;;16.43;10.77;;;8.20;99.90;;;;;;4960380;28;20582;-84
2023/04/17 06:46:57;;;;;;;19.80;10.47;;;8.30;99.90;;;;;;4960639;28;20188;-83
2023/04/17 06:49:23;;;;;;;19.00;11.23;;;8.20;99.90;;;;;;4977841;28;20184;-83
2023/04/17 06:51:50;;;;;;;15.77;10.70;;;8.20;99.90;;;;;;4977933;28;20299;-83
2023/04/17 06:54:16;;;;;;;19.50;11.10;;;8.10;99.90;;;;;;4960298;28;20236;-83
2023/04/17 06:56:42;;;;;;;17.83;11.93;;;8.20;99.90;;;;;;4967663;28;20188;-83
2023/04/17 06:59:08;;;;;;;15.13;11.03;;;8.20;99.90;;;;;;4997078;28;20295;-83
2023/04/17 07:01:34;;;;;;;16.40;10.77;;;8.20;99.90;;;;;;4979427;28;20207;-83
2023/04/17 07:04:00;;;;;;;18.83;11.00;;;8.20;99.90;;;;;;4979543;28;20187;-83
2023/04/17 07:06:27;;;;;;;16.37;11.67;;;8.40;99.90;;;;;;4997023;28;20259;-83
2023/04/17 07:08:53;;;;;;;23.83;11.33;;;8.40;99.90;;;;;;4996795;28;20633;-83
2023/04/17 07:11:19;;;;;;;17.53;10.97;;;8.50;99.90;;;;;;4996777;28;20195;-84
2023/04/17 07:13:45;;;;;;;16.48;11.23;;;8.50;99.90;;;;;;4996911;28;20221;-84
2023/04/17 07:16:10;;;;;;;15.15;10.90;;;8.70;99.90;;;;;;4996944;28;20619;-84
2023/04/17 07:18:36;;;;;;;16.60;10.63;;;8.70;99.90;;;;;;4996662;28;20689;-84
2023/04/17 07:21:02;;;;;;;15.88;10.35;;;8.70;99.90;;;;;;4996557;28;20172;-83
2023/04/17 07:23:28;;;;;;;17.10;11.05;;;8.80;99.90;;;;;;4979284;28;20183;-83
2023/04/17 07:25:53;;;;;;;15.77;10.10;;;8.90;99.90;;;;;;4979188;28;20175;-83
2023/04/17 07:28:20;;;;;;;19.00;11.00;;;9.00;99.90;;;;;;4996451;28;20172;-83
2023/04/17 07:30:46;;;;;;;15.83;10.93;;;9.10;99.90;;;;;;4996416;28;20176;-84
2023/04/17 07:33:12;;;;;;;14.55;10.15;;;9.00;99.90;;;;;;4996414;28;20175;-83
2023/04/17 07:35:37;;;;;;;15.90;10.60;;;9.20;99.90;;;;;;4979008;28;20529;-83
2023/04/17 07:38:03;;;;;;;16.52;9.52;;;9.30;99.90;;;;;;4978883;28;20196;-83
2023/04/17 07:40:30;;;;;;;15.32;10.00;;;9.40;99.90;;;;;;4996289;28;20176;-84
2023/04/17 07:42:56;;;;;;;19.38;10.82;;;9.50;99.90;;;;;;4978549;28;20187;-83
2023/04/17 07:45:22;;;;;;;13.15;9.35;;;9.50;99.90;;;;;;4996351;28;20184;-83
2023/04/17 07:47:51;;;;;;;15.67;10.47;;;9.50;99.90;;;;;;4978827;28;20582;-83
2023/04/17 07:50:16;;;;;;;17.42;9.52;;;9.50;99.90;;;;;;4978821;28;20554;-84
2023/04/17 07:52:42;;;;;;;15.70;9.75;;;9.60;99.90;;;;;;4994900;28;20172;-83
2023/04/17 07:55:08;;;;;;;15.07;9.95;;;9.60;99.90;;;;;;4978520;28;20235;-83
2023/04/17 07:57:34;;;;;;;19.00;9.80;;;9.70;99.90;;;;;;4994484;28;20198;-84
2023/04/17 08:00:00;;;;;;;13.10;9.68;;;9.60;99.90;;;;;;4995908;28;20211;-83
2023/04/17 08:02:26;;;;;;;14.55;9.35;;;9.70;99.90;;;;;;4994670;28;20187;-83
2023/04/17 08:04:53;;;;;;;11.45;8.55;;;9.90;99.90;;;;;;4995868;28;20172;-83
2023/04/17 08:07:19;;;;;;;15.50;10.13;;;9.90;99.90;;;;;;4996065;28;20164;-83
2023/04/17 08:09:45;;;;;;;14.63;9.20;;;10.00;99.90;;;;;;4995310;28;20172;-83
2023/04/17 08:12:11;;;;;;;16.67;9.45;;;10.10;99.90;;;;;;4995300;28;20164;-83
2023/04/17 08:14:37;;;;;;;15.40;8.32;;;10.20;99.90;;;;;;4978474;28;20202;-83
2023/04/17 08:17:03;;;;;;;13.93;8.57;;;10.40;99.90;;;;;;4994492;28;20238;-83
2023/04/17 08:19:29;;;;;;;15.70;8.55;;;10.40;99.90;;;;;;4978208;28;20661;-83
2023/04/17 08:22:01;;;;;;;15.57;8.98;;;10.50;99.90;;;;;;4994384;28;20182;-83
2023/04/17 08:24:27;;;;;;;11.82;8.75;;;10.50;99.90;;;;;;4995610;28;20630;-83
2023/04/17 08:26:53;;;;;;;12.70;8.70;;;10.50;99.90;;;;;;4983653;28;20274;-83
2023/04/17 08:29:18;;;;;;;12.65;8.00;;;10.60;99.90;;;;;;4995371;28;20211;-83
2023/04/17 08:31:44;;;;;;;14.07;7.78;;;10.70;99.90;;;;;;4977650;28;20505;-82
2023/04/17 08:34:10;;;;;;;13.27;7.45;;;10.80;99.90;;;;;;4995524;28;20215;-83
2023/04/17 08:36:36;;;;;;;10.07;7.70;;;11.00;99.90;;;;;;4995367;28;20638;-82
2023/04/17 08:39:03;;;;;;;14.77;8.75;;;11.20;99.90;;;;;;4995103;28;20262;-82
2023/04/17 08:41:36;;;;;;;13.38;7.53;;;11.30;99.90;;;;;;4993799;28;20266;-82
2023/04/17 08:44:02;;;;;;;14.23;7.35;;;11.40;99.90;;;;;;4994891;28;20156;-83
2023/04/17 08:46:29;;;;;;;15.38;7.82;;;11.40;99.90;;;;;;4977727;28;20184;-82
2023/04/17 08:48:55;;;;;;;10.85;6.93;;;11.40;99.90;;;;;;4977534;28;20219;-82
2023/04/17 08:51:26;;;;;;;11.95;7.03;;;11.40;99.90;;;;;;4976996;28;20203;-82
2023/04/17 08:53:52;;;;;;;12.93;6.13;;;11.50;99.90;;;;;;4994879;28;20156;-82
2023/04/17 08:56:18;;;;;;;10.05;6.63;;;11.50;99.90;;;;;;4993482;28;20235;-82
2023/04/17 08:58:44;;;;;;;9.50;6.93;;;11.50;99.90;;;;;;4994534;28;20215;-81
2023/04/17 09:01:14;;;;;;;10.82;6.53;;;11.60;99.90;;;;;;4977207;28;20183;-81
2023/04/17 09:03:42;;;;;;;12.10;6.53;;;11.60;99.90;;;;;;4994836;28;20168;-81
2023/04/17 09:06:12;;;;;;;11.02;5.93;;;11.60;99.10;;;;;;4993434;28;20191;-81
2023/04/17 09:08:52;;;;;;;13.93;6.82;;;11.70;99.30;;;;;;4977066;28;20188;-81
2023/04/17 09:11:18;;;;;;;8.73;5.97;;;11.70;99.90;;;;;;4993273;28;20175;-81
2023/04/17 09:13:44;;;;;;;12.90;7.05;;;11.80;99.90;;;;;;4976696;28;20339;-81
2023/04/17 09:16:14;;;;;;;7.70;6.00;;;11.90;99.90;;;;;;4977276;28;20178;-81
2023/04/17 09:18:45;;;;;;;11.70;6.18;;;12.00;99.90;;;;;;4994768;28;20190;-82
2023/04/17 09:21:11;;;;;;;8.70;6.30;;;12.10;99.80;;;;;;4994247;28;20259;-81
2023/04/17 09:23:54;;;;;;;12.48;5.80;;;12.20;99.90;;;;;;4993205;28;20199;-81
2023/04/17 09:26:30;;;;;;;8.35;5.50;;;12.40;99.90;;;;;;4977070;28;20183;-82
2023/04/17 09:29:02;;;;;;;7.15;5.03;;;12.70;97.90;;;;;;4994272;28;20163;-82
2023/04/17 09:31:29;;;;;;;8.45;5.35;;;12.60;93.20;;;;;;4994134;28;20183;-81
2023/04/17 09:34:04;;;;;;;12.02;5.15;;;12.50;94.80;;;;;;4994302;28;20164;-81
2023/04/17 09:36:31;;;;;;;10.23;5.22;;;12.40;92.00;;;;;;4994321;28;20155;-81
2023/04/17 09:39:19;;;;;;;8.13;4.95;;;12.70;90.20;;;;;;4994244;28;20218;-81
2023/04/17 09:41:45;;;;;;;12.13;5.38;;;12.80;90.50;;;;;;4976679;28;20178;-82
2023/04/17 09:44:22;;;;;;;12.18;5.30;;;13.00;90.70;;;;;;4994343;28;20176;-85
2023/04/17 09:46:49;;;;;;;7.70;5.30;;;13.20;91.10;;;;;;4994175;28;20217;-81
2023/04/17 09:49:15;;;;;;;10.60;5.18;;;13.30;88.40;;;;;;4992965;28;20187;-81
2023/04/17 09:51:41;;;;;;;8.90;4.90;;;13.30;86.30;;;;;;4976579;28;20171;-81
2023/04/17 09:54:09;;;;;;;8.60;4.88;;;13.30;85.20;;;;;;4992518;28;20246;-85
2023/04/17 09:56:36;;;;;;;7.07;5.18;;;13.50;89.80;;;;;;4993447;28;20176;-81
2023/04/17 09:59:04;;;;;;;12.95;5.90;;;13.60;87.90;;;;;;4993933;28;20246;-82
2023/04/17 10:01:35;;;;;;;10.48;5.72;;;13.40;86.00;;;;;;4976327;28;20172;-82
2023/04/17 10:04:02;;;;;;;8.88;5.43;;;13.30;89.20;;;;;;4998267;28;20156;-82
2023/04/17 10:06:31;;;;;;;7.60;5.00;;;13.30;89.40;;;;;;4998124;28;20178;-82
2023/04/17 10:08:56;;;;;;;11.73;5.93;;;13.40;90.70;;;;;;4980596;28;20187;-82
2023/04/17 10:11:24;;;;;;;8.38;5.68;;;13.40;87.30;;;;;;4997953;28;20207;-81
2023/04/17 10:14:18;;;;;;;8.80;5.20;;;13.60;90.10;;;;;;4998023;28;20629;-82
2023/04/17 10:16:45;;;;;;;9.07;5.70;;;13.80;90.20;;;;;;4997793;28;20214;-82
2023/04/17 10:19:35;;;;;;;9.23;5.22;;;14.00;87.00;;;;;;4997725;28;20224;-82
2023/04/17 10:22:19;;;;;;;8.25;5.20;;;14.00;90.40;;;;;;4997617;28;20168;-82
2023/04/17 10:25:11;;;;;;;8.57;5.53;;;14.20;90.10;;;;;;4997946;28;20599;-82
2023/04/17 10:27:40;;;;;;;9.45;5.40;;;14.00;82.30;;;;;;4991084;28;20654;-82
2023/04/17 10:30:11;;;;;;;6.90;4.90;;;14.10;84.80;;;;;;4997619;28;20179;-82
2023/04/17 10:32:43;;;;;;;11.00;4.85;;;14.20;83.40;;;;;;4997276;28;20214;-84
2023/04/17 10:35:15;;;;;;;7.57;4.93;;;14.20;83.80;;;;;;4996531;28;20200;-81
2023/04/17 10:37:47;;;;;;;10.48;4.85;;;14.10;83.00;;;;;;4997575;28;20179;-82
2023/04/17 10:40:29;;;;;;;6.72;4.15;;;14.20;83.10;;;;;;4980076;28;20196;-81
2023/04/17 10:43:12;;;;;;;7.35;4.30;;;14.20;82.40;;;;;;4979971;28;20513;-81
2023/04/17 10:46:00;;;;;;;7.50;4.25;;;13.90;79.10;;;;;;4997120;28;20187;-81
2023/04/17 10:48:27;;;;;;;6.47;4.40;;;13.90;79.40;;;;;;4997410;28;20250;-82
2023/04/17 10:50:54;;;;;;;6.53;4.80;;;13.90;79.40;;;;;;4997083;28;20176;-82
2023/04/17 10:53:40;;;;;;;14.82;4.93;;;13.80;81.80;;;;;;4997222;28;20514;-81
2023/04/17 10:56:07;;;;;;;9.85;4.55;;;13.80;82.00;;;;;;4995943;28;20207;-81
2023/04/17 10:58:37;;;;;;;12.73;4.55;;;13.80;82.80;;;;;;4997144;28;20298;-83
2023/04/17 11:01:08;;;;;;;8.45;4.57;;;14.00;80.10;;;;;;4995423;28;20180;-82
2023/04/17 11:03:38;;;;;;;10.55;5.00;;;14.30;78.40;;;;;;4979506;28;20178;-81
2023/04/17 11:06:06;;;;;;;9.13;4.30;;;14.20;79.00;;;;;;4995852;28;20586;-82
2023/04/17 11:08:32;;;;;;;7.70;4.53;;;14.30;76.40;;;;;;4997126;28;20177;-82
2023/04/17 11:10:57;;;;;;;6.82;4.50;;;14.20;75.80;;;;;;4996728;28;20206;-81
2023/04/17 11:13:23;;;;;;;7.78;4.25;;;14.10;77.30;;;;;;4994869;28;20513;-82
2023/04/17 11:15:50;;;;;;;8.70;4.57;;;13.90;75.70;;;;;;4995376;28;20191;-82
2023/04/17 11:18:15;;;;;;;10.43;4.78;;;14.00;77.30;;;;;;4995380;28;20214;-82
2023/04/17 11:20:41;;;;;;;8.68;4.13;;;14.10;79.10;;;;;;4979184;28;20184;-82
2023/04/17 11:23:07;;;;;;;7.38;4.13;;;14.50;74.30;;;;;;4979338;28;20619;-83
2023/04/17 11:25:33;;;;;;;6.32;4.18;;;14.60;76.70;;;;;;4979256;28;20215;-83
2023/04/17 11:28:02;;;;;;;7.90;4.82;;;14.90;73.70;;;;;;4996506;28;20184;-82
2023/04/17 11:30:30;;;;;;;7.22;4.80;;;14.80;75.00;;;;;;4996561;28;20264;-83
2023/04/17 11:32:58;;;;;;;6.07;4.70;;;14.60;75.40;;;;;;4995802;28;20674;-82
2023/04/17 11:35:29;;;;;;;11.35;5.32;;;14.60;78.40;;;;;;4996601;28;20176;-82
2023/04/17 11:38:20;;;;;;;8.20;5.32;;;14.60;76.30;;;;;;4996489;28;20227;-83
2023/04/17 11:40:53;;;;;;;7.32;5.07;;;14.30;78.60;;;;;;4996406;28;20260;-83
2023/04/17 11:43:20;;;;;;;9.07;4.97;;;14.30;80.00;;;;;;4995092;28;20186;-83
2023/04/17 11:45:51;;;;;;;9.32;5.35;;;14.10;80.60;;;;;;4978735;28;20184;-83
2023/04/17 11:48:21;;;;;;;6.55;4.88;;;13.90;80.80;;;;;;4995079;28;20172;-82
2023/04/17 11:50:47;;;;;;;11.65;6.00;;;14.00;81.60;;;;;;4994874;28;20210;-82
2023/04/17 11:53:16;;;;;;;10.93;5.05;;;14.00;81.80;;;;;;4996174;28;20621;-83
2023/04/17 11:55:43;;;;;;;14.73;5.57;;;14.10;82.70;;;;;;4975180;28;20233;-85
2023/04/17 11:58:11;;;;;;;9.05;5.32;;;14.30;79.60;;;;;;4976568;28;20242;-82
2023/04/17 12:00:37;;;;;;;11.70;4.85;;;14.20;81.10;;;;;;4991635;28;20263;-81
2023/04/17 12:03:30;;;;;;;7.82;5.15;;;14.20;77.20;;;;;;4976449;28;20576;-82
2023/04/17 12:06:00;;;;;;;9.43;5.03;;;14.30;76.10;;;;;;4976695;28;20169;-83
2023/04/17 12:08:27;;;;;;;7.35;5.20;;;14.30;77.50;;;;;;4975325;28;20208;-85
2023/04/17 12:10:54;;;;;;;11.95;5.95;;;14.30;79.80;;;;;;4975788;28;20191;-83
2023/04/17 12:13:20;;;;;;;8.88;5.53;;;14.20;75.20;;;;;;4975266;28;20275;-83
2023/04/17 12:15:46;;;;;;;7.35;5.60;;;14.30;77.10;;;;;;4976227;28;20598;-83
2023/04/17 12:18:12;;;;;;;9.38;5.93;;;14.30;79.30;;;;;;4974875;28;20207;-83
2023/04/17 12:20:37;;;;;;;9.48;5.35;;;14.50;79.30;;;;;;4974836;28;20230;-83
2023/04/17 12:23:05;;;;;;;8.43;5.32;;;14.70;79.70;;;;;;4974676;28;20187;-83
2023/04/17 12:25:32;;;;;;;7.65;5.43;;;15.00;76.40;;;;;;4974119;28;20231;-83
2023/04/17 12:27:58;;;;;;;12.35;5.55;;;15.00;76.10;;;;;;4976171;28;20189;-83
2023/04/17 12:30:25;;;;;;;8.77;5.32;;;14.80;76.60;;;;;;4975819;28;20204;-84
2023/04/17 12:32:52;;;;;;;11.75;5.43;;;14.90;77.00;;;;;;4974318;28;20181;-83
2023/04/17 12:35:19;;;;;;;7.63;5.10;;;15.10;76.30;;;;;;4975986;28;20177;-84
2023/04/17 12:37:47;;;;;;;8.85;5.18;;;15.10;77.20;;;;;;4974577;28;20177;-85
2023/04/17 12:40:23;;;;;;;9.00;5.28;;;15.00;75.00;;;;;;4975966;28;20216;-84